Time;durP1;ratioP1;P1;durP2;ratioP2;P2;SDS_P1;SDS_P2;PMS_P1;PMS_P2;Temp;Humidity;BMP_temperature;BMP_pressure;BME280_temperature;BME280_humidity;BME280_pressure;Samples;Min_cycle;Max_cycle;Signal;HPM_P1;HPM_P2
2024/03/06 00:02:05;;;;;;;5.77;5.00;;;21.20;55.00;;;;;;5069943;28;20457;-70
2024/03/06 00:04:31;;;;;;;6.23;5.40;;;21.20;55.00;;;;;;5069970;28;20456;-69
2024/03/06 00:06:57;;;;;;;5.77;5.10;;;21.20;55.00;;;;;;5069043;28;20418;-70
2024/03/06 00:09:23;;;;;;;5.63;4.77;;;21.20;55.50;;;;;;5069568;28;20178;-70
2024/03/06 00:11:50;;;;;;;6.10;4.60;;;21.20;55.00;;;;;;5069240;28;20426;-69
2024/03/06 00:14:16;;;;;;;6.70;5.53;;;21.20;55.00;;;;;;5071650;28;20441;-70
2024/03/06 00:16:42;;;;;;;6.27;5.20;;;21.20;55.00;;;;;;5073171;28;20413;-70
2024/03/06 00:19:08;;;;;;;6.23;5.50;;;21.10;54.90;;;;;;5073044;28;20191;-69
2024/03/06 00:21:36;;;;;;;5.67;5.10;;;21.20;55.00;;;;;;5072155;28;20502;-70
2024/03/06 00:24:02;;;;;;;5.60;4.80;;;21.10;54.90;;;;;;5073107;28;20191;-69
2024/03/06 00:26:27;;;;;;;5.73;5.10;;;21.10;54.90;;;;;;5072899;28;20424;-71
2024/03/06 00:28:53;;;;;;;8.13;5.27;;;21.10;55.50;;;;;;5072475;28;20402;-70
2024/03/06 00:31:19;;;;;;;5.90;4.83;;;21.10;54.90;;;;;;5072696;28;20206;-69
2024/03/06 00:33:44;;;;;;;4.90;4.40;;;21.10;54.90;;;;;;5072533;28;20205;-70
2024/03/06 00:36:10;;;;;;;5.20;4.63;;;21.10;54.90;;;;;;5072087;28;20190;-69
2024/03/06 00:38:35;;;;;;;5.40;4.90;;;21.10;54.90;;;;;;5071722;28;20591;-70
2024/03/06 00:41:01;;;;;;;6.60;5.30;;;21.10;54.90;;;;;;5072592;28;20198;-69
2024/03/06 00:43:26;;;;;;;5.13;4.63;;;21.10;54.90;;;;;;5071690;28;20215;-70
2024/03/06 00:45:52;;;;;;;5.60;4.10;;;21.10;54.90;;;;;;5071600;28;20175;-70
2024/03/06 00:48:19;;;;;;;5.03;4.27;;;21.10;54.90;;;;;;5072452;28;20171;-69
2024/03/06 00:50:45;;;;;;;5.20;4.63;;;21.10;54.90;;;;;;5071929;28;20173;-69
2024/03/06 00:53:11;;;;;;;5.97;5.27;;;21.10;54.90;;;;;;5070915;28;20465;-70
2024/03/06 00:55:37;;;;;;;5.37;4.87;;;21.10;55.00;;;;;;5070665;28;20234;-71
2024/03/06 00:58:02;;;;;;;6.83;4.50;;;21.10;54.90;;;;;;5071318;28;20178;-70
2024/03/06 01:00:29;;;;;;;5.20;4.40;;;21.10;54.90;;;;;;5071181;28;20172;-69
2024/03/06 01:02:54;;;;;;;5.60;4.57;;;21.10;55.00;;;;;;5071057;28;20596;-68
2024/03/06 01:05:20;;;;;;;5.00;4.50;;;21.10;54.90;;;;;;5071142;28;20437;-69
2024/03/06 01:07:46;;;;;;;6.50;4.90;;;21.10;54.90;;;;;;5071223;28;20190;-69
2024/03/06 01:10:11;;;;;;;6.40;5.47;;;21.10;54.90;;;;;;5071425;28;20183;-69
2024/03/06 01:12:37;;;;;;;6.57;4.73;;;21.10;55.00;;;;;;5071138;28;20183;-70
2024/03/06 01:15:03;;;;;;;5.10;4.60;;;21.10;54.90;;;;;;5071550;28;20202;-71
2024/03/06 01:17:29;;;;;;;4.20;3.80;;;21.10;55.00;;;;;;5071130;28;20281;-69
2024/03/06 01:19:55;;;;;;;5.97;4.70;;;21.10;54.90;;;;;;5071264;28;20465;-69
2024/03/06 01:22:20;;;;;;;6.07;5.47;;;21.10;54.90;;;;;;5070394;28;20203;-70
2024/03/06 01:24:48;;;;;;;5.47;4.97;;;21.10;55.00;;;;;;5070595;28;20191;-71
2024/03/06 01:27:16;;;;;;;7.50;4.43;;;21.10;55.00;;;;;;5071365;28;20167;-69
2024/03/06 01:29:41;;;;;;;6.00;4.57;;;21.10;55.00;;;;;;5071161;28;20406;-69
2024/03/06 01:32:07;;;;;;;6.57;5.10;;;21.10;55.00;;;;;;5071702;28;20421;-70
2024/03/06 01:34:32;;;;;;;6.83;5.07;;;21.10;55.00;;;;;;5070581;28;20225;-70
2024/03/06 01:36:58;;;;;;;4.90;4.40;;;21.10;55.00;;;;;;5070912;28;20202;-70
2024/03/06 01:39:23;;;;;;;5.37;4.17;;;21.10;55.00;;;;;;5071560;28;20175;-69
2024/03/06 01:41:51;;;;;;;5.80;4.40;;;21.10;55.00;;;;;;5071131;28;20207;-69
2024/03/06 01:44:17;;;;;;;5.30;4.80;;;21.10;55.00;;;;;;5070592;28;20254;-69
2024/03/06 01:46:47;;;;;;;5.10;4.60;;;21.10;55.00;;;;;;5071367;28;20418;-70
2024/03/06 01:49:14;;;;;;;6.20;4.77;;;21.10;55.00;;;;;;5071023;28;20451;-70
2024/03/06 01:51:48;;;;;;;4.70;4.20;;;21.10;55.00;;;;;;5071332;28;20850;-70
2024/03/06 01:54:15;;;;;;;5.60;4.50;;;21.10;55.00;;;;;;5071060;28;20441;-69
2024/03/06 01:56:45;;;;;;;6.10;4.80;;;21.10;55.00;;;;;;5070987;28;20448;-68
2024/03/06 01:59:20;;;;;;;5.20;4.50;;;21.10;55.00;;;;;;5071173;28;20426;-69
2024/03/06 02:01:46;;;;;;;5.10;4.60;;;21.10;55.00;;;;;;5070944;28;20476;-68
2024/03/06 02:04:12;;;;;;;5.03;4.53;;;21.00;54.90;;;;;;5070939;28;20456;-69
2024/03/06 02:06:42;;;;;;;4.80;4.37;;;21.00;54.90;;;;;;5070967;28;20729;-70
2024/03/06 02:09:09;;;;;;;5.60;4.30;;;21.10;55.00;;;;;;5070417;28;20496;-70
2024/03/06 02:11:35;;;;;;;5.20;4.50;;;21.10;55.00;;;;;;5071068;28;20469;-69
2024/03/06 02:14:01;;;;;;;5.67;4.93;;;21.00;55.00;;;;;;5071189;28;20432;-69
2024/03/06 02:16:27;;;;;;;4.43;4.03;;;21.00;55.00;;;;;;5070623;28;20501;-69
2024/03/06 02:18:59;;;;;;;4.17;3.77;;;21.00;55.00;;;;;;5070837;28;20187;-70
2024/03/06 02:21:25;;;;;;;5.23;4.03;;;21.10;55.00;;;;;;5070503;28;20171;-69
2024/03/06 02:23:52;;;;;;;5.40;4.50;;;21.00;55.00;;;;;;5070562;28;20496;-69
2024/03/06 02:26:18;;;;;;;5.07;4.57;;;21.00;55.00;;;;;;5070504;28;20406;-71
2024/03/06 02:28:47;;;;;;;5.27;4.30;;;21.00;55.00;;;;;;5070137;28;20174;-70
2024/03/06 02:31:13;;;;;;;4.93;4.47;;;21.00;55.00;;;;;;5070717;28;20417;-70
2024/03/06 02:33:39;;;;;;;4.10;3.70;;;21.00;55.00;;;;;;5069114;28;20437;-70
2024/03/06 02:36:05;;;;;;;4.93;4.33;;;21.00;55.00;;;;;;5070074;28;20492;-68
2024/03/06 02:38:31;;;;;;;4.10;3.70;;;21.10;55.00;;;;;;5070385;28;20424;-70
2024/03/06 02:40:57;;;;;;;4.80;4.30;;;21.00;55.00;;;;;;5070544;28;20413;-70
2024/03/06 02:43:22;;;;;;;4.67;4.27;;;21.00;55.00;;;;;;5069490;28;20277;-69
2024/03/06 02:45:48;;;;;;;5.50;4.90;;;21.00;55.00;;;;;;5070081;28;20179;-70
2024/03/06 02:48:13;;;;;;;5.73;4.13;;;21.10;55.00;;;;;;5070557;28;20187;-70
2024/03/06 02:50:39;;;;;;;5.60;4.50;;;21.10;55.00;;;;;;5069743;28;20167;-69
2024/03/06 02:53:05;;;;;;;4.77;4.30;;;21.00;54.90;;;;;;5069318;28;20212;-69
2024/03/06 02:55:30;;;;;;;5.00;4.07;;;21.00;55.00;;;;;;5069825;28;20175;-69
2024/03/06 02:57:56;;;;;;;4.87;4.37;;;21.00;55.00;;;;;;5069471;28;20194;-69
2024/03/06 03:00:22;;;;;;;5.23;4.20;;;21.00;55.00;;;;;;5070197;28;20234;-70
2024/03/06 03:02:47;;;;;;;5.03;4.50;;;21.00;55.00;;;;;;5069068;28;20987;-70
2024/03/06 03:05:13;;;;;;;7.17;3.97;;;21.10;55.00;;;;;;5069596;28;20193;-70
2024/03/06 03:07:39;;;;;;;5.23;4.50;;;21.00;55.00;;;;;;5069882;28;20163;-69
2024/03/06 03:10:04;;;;;;;4.33;3.93;;;21.10;55.10;;;;;;5069983;28;20205;-69
2024/03/06 03:12:30;;;;;;;4.60;3.93;;;21.00;55.00;;;;;;5070126;28;20171;-69
2024/03/06 03:14:56;;;;;;;4.83;3.87;;;21.00;55.00;;;;;;5069131;28;20510;-70
2024/03/06 03:17:22;;;;;;;4.70;4.30;;;21.00;55.00;;;;;;5069344;28;20193;-70
2024/03/06 03:19:47;;;;;;;6.53;4.50;;;21.00;55.00;;;;;;5069273;28;20182;-70
2024/03/06 03:22:13;;;;;;;4.20;3.80;;;21.00;55.00;;;;;;5069357;28;20684;-69
2024/03/06 03:24:41;;;;;;;5.47;3.77;;;21.00;55.00;;;;;;5069192;28;20194;-69
2024/03/06 03:27:07;;;;;;;6.37;4.57;;;21.00;55.00;;;;;;5069402;28;20178;-70
2024/03/06 03:29:33;;;;;;;4.37;3.80;;;21.00;55.00;;;;;;5069384;28;20398;-70
2024/03/06 03:31:58;;;;;;;5.50;4.50;;;21.00;55.00;;;;;;5069257;28;20514;-69
2024/03/06 03:34:24;;;;;;;6.00;4.60;;;21.00;55.00;;;;;;5069455;28;20195;-70
2024/03/06 03:36:50;;;;;;;4.20;3.50;;;21.00;55.00;;;;;;5069596;28;20237;-69
2024/03/06 03:39:16;;;;;;;5.20;4.03;;;21.00;55.00;;;;;;5068842;28;20182;-69
2024/03/06 03:41:45;;;;;;;4.03;3.60;;;21.00;55.00;;;;;;5069325;28;20179;-70
2024/03/06 03:44:15;;;;;;;4.33;3.83;;;21.00;55.00;;;;;;5069710;28;20425;-70
2024/03/06 03:46:40;;;;;;;4.60;3.70;;;21.00;55.00;;;;;;5069727;28;20414;-69
2024/03/06 03:49:06;;;;;;;5.47;4.50;;;21.00;55.00;;;;;;5072047;28;20413;-70
2024/03/06 03:51:32;;;;;;;5.70;4.60;;;21.00;55.00;;;;;;5073420;28;20167;-69
2024/03/06 03:53:57;;;;;;;5.70;3.70;;;21.00;55.00;;;;;;5072750;28;20195;-71
2024/03/06 03:56:23;;;;;;;5.07;4.17;;;21.00;55.00;;;;;;5073489;28;20175;-70
2024/03/06 03:58:48;;;;;;;4.90;4.10;;;21.00;55.00;;;;;;5072649;28;20183;-70
2024/03/06 04:01:14;;;;;;;4.47;3.80;;;21.00;55.00;;;;;;5073577;28;20159;-69
2024/03/06 04:03:42;;;;;;;4.50;3.70;;;21.00;55.00;;;;;;5072934;28;20229;-69
2024/03/06 04:06:08;;;;;;;5.20;4.27;;;21.00;55.00;;;;;;5073703;28;21016;-69
2024/03/06 04:08:34;;;;;;;3.97;3.30;;;21.00;55.00;;;;;;5072688;28;20442;-69
2024/03/06 04:10:59;;;;;;;4.80;3.70;;;21.00;55.00;;;;;;5073116;28;20441;-70
2024/03/06 04:13:25;;;;;;;4.70;3.90;;;21.00;55.00;;;;;;5072349;28;20194;-69
2024/03/06 04:15:51;;;;;;;4.03;3.63;;;21.00;55.10;;;;;;5072671;28;20163;-70
2024/03/06 04:18:17;;;;;;;5.23;3.77;;;20.90;54.90;;;;;;5072481;28;20199;-69
2024/03/06 04:20:42;;;;;;;4.63;4.10;;;21.00;55.00;;;;;;5072445;28;20175;-71
2024/03/06 04:23:08;;;;;;;4.53;3.70;;;21.00;55.00;;;;;;5072455;28;20214;-70
2024/03/06 04:25:34;;;;;;;5.40;3.77;;;21.00;55.00;;;;;;5072276;28;20179;-70
2024/03/06 04:27:59;;;;;;;4.23;3.83;;;21.00;55.00;;;;;;5073128;28;20234;-70
2024/03/06 04:30:25;;;;;;;4.33;3.70;;;20.90;54.90;;;;;;5072653;28;20179;-69
2024/03/06 04:32:50;;;;;;;4.40;4.00;;;20.90;55.00;;;;;;5071979;28;20183;-69
2024/03/06 04:35:16;;;;;;;4.17;3.47;;;20.90;54.90;;;;;;5072434;28;20183;-70
2024/03/06 04:37:43;;;;;;;4.87;3.60;;;20.90;54.90;;;;;;5063210;28;20255;-70
2024/03/06 04:40:10;;;;;;;4.00;3.60;;;20.90;55.00;;;;;;5072650;28;20183;-70
2024/03/06 04:42:36;;;;;;;4.10;3.40;;;20.90;55.00;;;;;;5071928;28;20499;-70
2024/03/06 04:45:12;;;;;;;5.43;3.83;;;21.00;55.00;;;;;;5071715;28;20425;-70
2024/03/06 04:47:38;;;;;;;5.00;3.77;;;21.00;55.10;;;;;;5071521;28;20401;-72
2024/03/06 04:50:07;;;;;;;3.80;3.40;;;20.90;55.00;;;;;;5071787;28;20473;-69
2024/03/06 04:52:34;;;;;;;4.10;3.70;;;20.90;55.50;;;;;;5072520;28;20182;-70
2024/03/06 04:55:00;;;;;;;3.67;3.37;;;20.90;55.00;;;;;;5072477;28;20429;-70
2024/03/06 04:57:26;;;;;;;4.50;3.67;;;20.90;55.00;;;;;;5071837;28;20417;-69
2024/03/06 04:59:52;;;;;;;4.30;3.80;;;20.90;55.00;;;;;;5070775;28;20158;-69
2024/03/06 05:02:17;;;;;;;3.93;3.60;;;20.90;55.00;;;;;;5071680;28;20513;-71
2024/03/06 05:04:43;;;;;;;3.97;3.63;;;21.00;55.10;;;;;;5072261;28;20226;-70
2024/03/06 05:07:09;;;;;;;5.30;4.40;;;20.90;55.00;;;;;;5072015;28;20163;-70
2024/03/06 05:09:34;;;;;;;4.87;3.83;;;20.90;55.00;;;;;;5072408;28;20242;-70
2024/03/06 05:12:00;;;;;;;3.97;3.40;;;20.90;55.00;;;;;;5072572;28;20175;-70
2024/03/06 05:14:26;;;;;;;4.17;3.77;;;20.90;55.00;;;;;;5072565;28;20413;-69
2024/03/06 05:16:53;;;;;;;3.23;2.93;;;20.90;55.00;;;;;;5072485;28;20186;-71
2024/03/06 05:19:18;;;;;;;4.30;3.27;;;20.90;55.00;;;;;;5072128;28;20541;-71
2024/03/06 05:21:44;;;;;;;5.00;3.47;;;20.90;55.00;;;;;;5071576;28;20409;-70
2024/03/06 05:24:09;;;;;;;4.40;3.60;;;20.90;55.00;;;;;;5071578;28;20194;-71
2024/03/06 05:26:35;;;;;;;3.90;3.50;;;20.90;55.00;;;;;;5072035;28;20223;-69
2024/03/06 05:29:00;;;;;;;4.70;3.57;;;21.00;55.10;;;;;;5070790;28;20171;-69
2024/03/06 05:31:26;;;;;;;4.07;3.40;;;20.90;55.00;;;;;;5071771;28;20214;-70
2024/03/06 05:33:52;;;;;;;3.97;3.53;;;20.90;55.00;;;;;;5070921;28;20205;-70
2024/03/06 05:36:18;;;;;;;4.90;3.60;;;20.90;55.00;;;;;;5071406;28;20171;-71
2024/03/06 05:38:44;;;;;;;4.00;3.60;;;21.00;55.10;;;;;;5072086;28;20178;-69
2024/03/06 05:41:10;;;;;;;4.43;3.67;;;21.00;55.10;;;;;;5071904;28;20181;-70
2024/03/06 05:43:35;;;;;;;3.80;3.30;;;21.00;55.00;;;;;;5057088;28;20473;-70
2024/03/06 05:46:01;;;;;;;4.43;3.70;;;20.90;55.00;;;;;;5070529;28;20167;-71
2024/03/06 05:48:27;;;;;;;3.53;3.20;;;20.90;55.00;;;;;;5070379;28;20195;-70
2024/03/06 05:50:53;;;;;;;3.83;3.53;;;20.90;55.00;;;;;;5070511;28;20171;-72
2024/03/06 05:53:19;;;;;;;3.90;3.20;;;20.90;55.00;;;;;;5069824;28;20195;-69
2024/03/06 05:55:45;;;;;;;4.43;3.57;;;21.00;55.10;;;;;;5070663;28;20415;-70
2024/03/06 05:58:10;;;;;;;4.47;3.87;;;20.90;55.00;;;;;;5071823;28;20488;-69
2024/03/06 06:00:36;;;;;;;4.53;3.80;;;20.90;55.00;;;;;;5071723;28;20175;-70
2024/03/06 06:03:02;;;;;;;4.00;3.53;;;20.90;55.00;;;;;;5072052;28;20215;-69
2024/03/06 06:05:28;;;;;;;4.93;4.20;;;20.90;55.00;;;;;;5071954;28;20175;-70
2024/03/06 06:07:54;;;;;;;5.00;4.33;;;20.90;55.00;;;;;;5070379;28;20417;-69
2024/03/06 06:10:19;;;;;;;4.73;4.00;;;20.90;55.00;;;;;;5066876;28;20178;-68
2024/03/06 06:12:45;;;;;;;6.23;4.20;;;20.90;55.10;;;;;;5052457;28;20182;-68
2024/03/06 06:15:11;;;;;;;4.90;4.37;;;20.90;55.10;;;;;;5052156;28;20210;-70
2024/03/06 06:17:37;;;;;;;6.07;4.60;;;20.90;55.10;;;;;;5052453;28;20222;-70
2024/03/06 06:20:09;;;;;;;5.80;4.63;;;20.90;55.10;;;;;;5052199;28;20189;-68
2024/03/06 06:22:36;;;;;;;5.27;3.97;;;21.00;55.20;;;;;;5052338;28;20449;-67
2024/03/06 06:25:03;;;;;;;6.53;4.03;;;21.00;55.20;;;;;;5052656;28;20431;-68
2024/03/06 06:27:28;;;;;;;6.30;4.17;;;21.00;55.10;;;;;;5052430;28;20417;-69
2024/03/06 06:29:55;;;;;;;4.77;3.70;;;21.00;55.10;;;;;;5052720;28;20885;-68
2024/03/06 06:32:21;;;;;;;4.30;3.90;;;21.00;55.10;;;;;;5052433;28;20275;-68
2024/03/06 06:34:46;;;;;;;6.73;4.17;;;21.00;55.10;;;;;;5052092;28;20893;-69
2024/03/06 06:37:12;;;;;;;5.93;3.60;;;21.00;55.10;;;;;;5052291;28;20238;-69
2024/03/06 06:39:38;;;;;;;5.27;4.00;;;21.10;55.10;;;;;;5052510;28;20182;-69
2024/03/06 06:42:04;;;;;;;4.53;3.63;;;21.10;55.10;;;;;;5052003;28;20210;-69
2024/03/06 06:44:29;;;;;;;5.10;4.10;;;21.10;55.10;;;;;;5051939;28;20194;-67
2024/03/06 06:46:56;;;;;;;4.10;3.60;;;21.10;55.10;;;;;;5052758;28;20181;-70
2024/03/06 06:49:22;;;;;;;4.80;4.13;;;21.10;55.10;;;;;;5050983;28;20634;-70
2024/03/06 06:51:49;;;;;;;3.77;3.40;;;21.10;55.10;;;;;;5052892;28;20443;-69
2024/03/06 06:54:14;;;;;;;4.43;3.90;;;21.10;55.10;;;;;;5052551;28;20200;-69
2024/03/06 06:56:40;;;;;;;4.73;4.33;;;21.10;55.10;;;;;;5052396;28;20413;-68
2024/03/06 06:59:05;;;;;;;4.57;4.17;;;21.20;55.10;;;;;;5052083;28;20690;-70
2024/03/06 07:01:32;;;;;;;4.00;3.60;;;21.20;55.10;;;;;;5052030;28;20252;-69
2024/03/06 07:03:58;;;;;;;4.67;3.67;;;21.20;55.10;;;;;;5052152;28;20220;-70
2024/03/06 07:06:24;;;;;;;4.97;3.40;;;21.20;55.10;;;;;;5052101;28;20504;-70
2024/03/06 07:08:50;;;;;;;4.23;3.10;;;21.20;55.10;;;;;;5051930;28;20302;-69
2024/03/06 07:11:20;;;;;;;4.60;3.67;;;21.20;55.00;;;;;;5052077;28;20175;-69
2024/03/06 07:13:45;;;;;;;7.07;4.07;;;21.20;55.10;;;;;;5051960;28;20443;-70
2024/03/06 07:16:11;;;;;;;4.93;3.27;;;21.20;55.00;;;;;;5052020;28;20512;-69
2024/03/06 07:18:37;;;;;;;5.00;3.77;;;21.30;55.10;;;;;;5051952;28;20210;-69
2024/03/06 07:21:02;;;;;;;4.10;3.40;;;21.30;55.10;;;;;;5052004;28;20258;-68
2024/03/06 07:23:28;;;;;;;3.50;2.87;;;21.30;55.10;;;;;;5052564;28;20240;-69
2024/03/06 07:25:54;;;;;;;5.53;3.93;;;21.30;55.10;;;;;;5055799;28;20174;-69
2024/03/06 07:28:20;;;;;;;4.77;3.40;;;21.30;55.00;;;;;;5056229;28;20658;-68
2024/03/06 07:30:47;;;;;;;4.70;3.00;;;21.30;55.00;;;;;;5055972;28;20167;-69
2024/03/06 07:33:13;;;;;;;4.80;4.40;;;21.30;55.00;;;;;;5055583;28;20430;-68
2024/03/06 07:35:39;;;;;;;4.60;3.80;;;21.30;55.00;;;;;;5055466;28;20425;-69
2024/03/06 07:38:05;;;;;;;4.03;3.30;;;21.30;55.00;;;;;;5055587;28;20425;-69
2024/03/06 07:40:34;;;;;;;4.37;3.37;;;21.30;55.00;;;;;;5055950;28;20167;-70
2024/03/06 07:42:59;;;;;;;3.40;3.10;;;21.30;55.00;;;;;;5055904;28;20634;-69
2024/03/06 07:45:26;;;;;;;5.23;3.40;;;21.30;55.00;;;;;;5055622;28;20441;-68
2024/03/06 07:47:52;;;;;;;3.83;3.30;;;21.30;55.00;;;;;;5055750;28;20266;-69
2024/03/06 07:50:18;;;;;;;5.20;3.70;;;21.30;55.00;;;;;;5056004;28;20884;-69
2024/03/06 07:52:46;;;;;;;3.70;3.13;;;21.30;55.00;;;;;;5055483;28;20171;-69
2024/03/06 07:55:11;;;;;;;4.30;3.50;;;21.30;55.00;;;;;;5055792;28;20421;-68
2024/03/06 07:57:38;;;;;;;3.93;3.20;;;21.30;55.00;;;;;;5055621;28;20421;-69
2024/03/06 08:00:14;;;;;;;3.13;2.77;;;21.30;55.00;;;;;;5055574;28;20174;-68
2024/03/06 08:02:49;;;;;;;6.57;3.57;;;21.30;55.00;;;;;;5055535;28;20449;-69
2024/03/06 08:05:15;;;;;;;3.80;3.30;;;21.30;55.00;;;;;;5055392;28;20393;-68
2024/03/06 08:07:42;;;;;;;3.87;3.00;;;21.30;55.00;;;;;;5054930;28;20912;-67
2024/03/06 08:10:09;;;;;;;3.10;2.80;;;21.30;55.00;;;;;;5055715;28;20397;-69
2024/03/06 08:12:35;;;;;;;6.00;3.70;;;21.30;55.00;;;;;;5054965;28;20417;-69
2024/03/06 08:15:02;;;;;;;5.50;3.60;;;21.30;55.00;;;;;;5055012;28;20916;-67
2024/03/06 08:17:28;;;;;;;4.10;3.70;;;21.30;55.00;;;;;;5054756;28;20194;-69
2024/03/06 08:19:53;;;;;;;3.87;2.80;;;21.30;55.00;;;;;;5054772;28;20397;-68
2024/03/06 08:22:19;;;;;;;3.87;2.90;;;21.30;55.00;;;;;;5054958;28;20199;-69
2024/03/06 08:24:45;;;;;;;4.90;3.70;;;21.30;55.60;;;;;;5053304;28;20223;-68
2024/03/06 08:27:10;;;;;;;4.97;2.97;;;21.30;55.00;;;;;;5054677;28;20262;-69
2024/03/06 08:29:36;;;;;;;4.07;3.30;;;21.40;55.10;;;;;;5054793;28;20273;-69
2024/03/06 08:32:02;;;;;;;3.93;3.30;;;21.30;55.00;;;;;;5054583;28;20178;-68
2024/03/06 08:34:29;;;;;;;3.67;2.90;;;21.30;55.00;;;;;;5054216;28;20197;-67
2024/03/06 08:36:55;;;;;;;3.03;2.73;;;21.40;55.10;;;;;;5054393;28;20989;-68
2024/03/06 08:39:20;;;;;;;3.70;3.07;;;21.40;55.40;;;;;;5053992;28;20175;-68
2024/03/06 08:41:46;;;;;;;4.40;2.60;;;21.40;55.00;;;;;;5054010;28;20459;-69
2024/03/06 08:44:11;;;;;;;3.40;3.07;;;21.40;55.10;;;;;;5054307;28;20201;-69
2024/03/06 08:46:37;;;;;;;3.37;3.07;;;21.40;55.10;;;;;;5054243;28;20179;-68
2024/03/06 08:49:03;;;;;;;3.43;3.00;;;21.40;55.10;;;;;;5054342;28;20657;-69
2024/03/06 08:51:28;;;;;;;4.80;3.10;;;21.40;55.10;;;;;;5054388;28;20264;-69
2024/03/06 08:53:54;;;;;;;3.13;2.80;;;21.40;55.10;;;;;;5054180;28;20191;-69
2024/03/06 08:56:19;;;;;;;3.80;3.10;;;21.40;55.10;;;;;;5053967;28;20171;-67
2024/03/06 08:58:45;;;;;;;3.70;2.87;;;21.40;55.10;;;;;;5053789;28;20179;-69
2024/03/06 09:01:10;;;;;;;3.37;2.70;;;21.40;55.10;;;;;;5051057;28;20563;-69
2024/03/06 09:03:36;;;;;;;3.30;2.83;;;21.40;55.10;;;;;;5056008;28;20199;-68
2024/03/06 09:06:02;;;;;;;3.67;3.17;;;21.40;55.10;;;;;;5058890;28;20278;-67
2024/03/06 09:08:28;;;;;;;4.73;3.30;;;21.40;55.10;;;;;;5058640;28;20664;-68
2024/03/06 09:10:54;;;;;;;4.00;3.13;;;21.40;55.10;;;;;;5058668;28;20409;-69
2024/03/06 09:13:19;;;;;;;4.90;2.90;;;21.40;55.10;;;;;;5058998;28;20195;-68
2024/03/06 09:15:45;;;;;;;3.57;3.03;;;21.40;55.10;;;;;;5058620;28;20171;-68
2024/03/06 09:18:11;;;;;;;3.23;2.90;;;21.40;55.10;;;;;;5059986;28;20240;-68
2024/03/06 09:20:36;;;;;;;4.10;3.10;;;21.40;55.10;;;;;;5059405;28;20174;-69
2024/03/06 09:23:02;;;;;;;3.83;2.73;;;21.40;55.10;;;;;;5058285;28;20206;-67
2024/03/06 09:25:28;;;;;;;2.97;2.50;;;21.40;55.10;;;;;;5058903;28;20193;-68
2024/03/06 09:27:54;;;;;;;5.17;3.27;;;21.40;55.10;;;;;;5058675;28;20488;-68
2024/03/06 09:30:20;;;;;;;3.40;2.97;;;21.40;55.10;;;;;;5058396;28;20972;-68
2024/03/06 09:32:45;;;;;;;3.80;2.90;;;21.40;55.10;;;;;;5057103;28;20182;-68
2024/03/06 09:35:11;;;;;;;3.83;3.43;;;21.40;55.10;;;;;;5058264;28;20181;-67
2024/03/06 09:37:37;;;;;;;3.43;3.10;;;21.40;55.10;;;;;;5057498;28;20605;-68
2024/03/06 09:40:03;;;;;;;3.70;2.93;;;21.40;55.10;;;;;;5057005;28;20417;-68
2024/03/06 09:42:29;;;;;;;3.97;2.97;;;21.40;55.10;;;;;;5057017;28;20205;-68
2024/03/06 09:44:55;;;;;;;4.90;3.97;;;21.40;55.10;;;;;;5056558;28;20836;-69
2024/03/06 09:47:27;;;;;;;5.37;3.93;;;21.40;55.10;;;;;;5057522;28;20409;-67
2024/03/06 09:49:53;;;;;;;4.70;3.20;;;21.40;55.10;;;;;;5058036;28;20258;-68
2024/03/06 09:52:19;;;;;;;4.60;3.60;;;21.40;55.10;;;;;;5058805;28;20437;-69
2024/03/06 09:54:44;;;;;;;3.70;3.30;;;21.40;55.10;;;;;;5058051;28;20468;-68
2024/03/06 09:57:12;;;;;;;4.40;3.30;;;21.40;55.20;;;;;;5058591;28;20186;-68
2024/03/06 09:59:43;;;;;;;4.40;3.33;;;21.40;55.20;;;;;;5058221;28;20654;-66
2024/03/06 10:02:20;;;;;;;4.57;3.53;;;21.40;55.20;;;;;;5059604;28;20457;-68
2024/03/06 10:04:46;;;;;;;5.23;3.50;;;21.40;55.20;;;;;;5060632;28;20425;-68
2024/03/06 10:07:12;;;;;;;4.70;3.17;;;21.40;55.20;;;;;;5060282;28;20436;-68
2024/03/06 10:09:39;;;;;;;4.60;3.40;;;21.40;55.20;;;;;;5059664;28;20418;-69
2024/03/06 10:12:05;;;;;;;5.20;3.70;;;21.40;55.20;;;;;;5059278;28;20194;-68
2024/03/06 10:14:31;;;;;;;4.63;3.47;;;21.40;55.20;;;;;;5058737;28;20445;-68
2024/03/06 10:16:59;;;;;;;4.70;4.20;;;21.40;55.20;;;;;;5058873;28;20406;-69
2024/03/06 10:19:27;;;;;;;4.43;3.50;;;21.40;55.20;;;;;;5059518;28;20874;-69
2024/03/06 10:21:53;;;;;;;5.50;3.80;;;21.40;55.20;;;;;;5059160;28;20421;-68
2024/03/06 10:24:26;;;;;;;5.03;3.27;;;21.40;55.20;;;;;;5059095;28;20962;-69
2024/03/06 10:26:55;;;;;;;4.77;3.90;;;21.40;55.20;;;;;;5058570;28;20421;-68
2024/03/06 10:29:22;;;;;;;4.70;3.40;;;21.40;55.20;;;;;;5058998;28;20920;-68
2024/03/06 10:32:08;;;;;;;3.70;3.40;;;21.40;55.20;;;;;;5060445;28;20417;-68
2024/03/06 10:34:34;;;;;;;5.07;3.60;;;21.40;55.20;;;;;;5059068;28;20448;-66
2024/03/06 10:37:03;;;;;;;7.20;3.90;;;21.40;55.20;;;;;;5058184;28;20453;-68
2024/03/06 10:39:33;;;;;;;4.07;3.40;;;21.40;55.20;;;;;;5059495;28;20178;-68
2024/03/06 10:42:02;;;;;;;6.10;4.43;;;21.40;55.20;;;;;;5058136;28;20488;-68
2024/03/06 10:44:28;;;;;;;4.53;2.97;;;21.40;55.20;;;;;;5059224;28;20445;-69
2024/03/06 10:47:00;;;;;;;4.87;3.27;;;21.40;55.20;;;;;;5060017;28;20778;-69
2024/03/06 10:49:30;;;;;;;13.20;3.60;;;21.40;55.20;;;;;;5059651;28;20402;-68
2024/03/06 10:51:59;;;;;;;4.43;3.17;;;21.40;55.20;;;;;;5060132;28;20417;-67
2024/03/06 10:54:30;;;;;;;4.83;3.90;;;21.40;55.20;;;;;;5058458;28;20471;-67
2024/03/06 10:56:56;;;;;;;3.90;3.50;;;21.40;55.20;;;;;;5058604;28;20410;-68
2024/03/06 10:59:28;;;;;;;4.90;3.40;;;21.40;55.30;;;;;;5056500;28;20417;-69
2024/03/06 11:02:03;;;;;;;4.60;3.50;;;21.40;55.20;;;;;;5057166;28;20393;-67
2024/03/06 11:04:34;;;;;;;4.27;3.83;;;21.40;55.20;;;;;;5057814;28;20916;-68
2024/03/06 11:07:02;;;;;;;3.73;3.27;;;21.30;55.20;;;;;;5056801;28;20390;-67
2024/03/06 11:09:35;;;;;;;4.07;3.37;;;21.30;55.20;;;;;;5058106;28;20417;-69
2024/03/06 11:12:02;;;;;;;5.40;3.47;;;21.40;55.20;;;;;;5058376;28;20402;-68
2024/03/06 11:14:30;;;;;;;3.70;2.93;;;21.30;55.20;;;;;;5058280;28;20437;-69
2024/03/06 11:17:08;;;;;;;5.13;3.70;;;21.40;55.30;;;;;;5057429;28;20479;-68
2024/03/06 11:19:59;;;;;;;5.50;3.77;;;21.40;55.30;;;;;;5055303;28;20413;-67
2024/03/06 11:22:55;;;;;;;4.87;3.20;;;21.40;55.30;;;;;;5057614;28;20457;-68
2024/03/06 11:25:55;;;;;;;5.97;3.20;;;21.40;55.30;;;;;;5056451;28;20436;-68
2024/03/06 11:28:25;;;;;;;5.30;3.13;;;21.30;55.30;;;;;;5056309;28;20397;-68
2024/03/06 11:31:00;;;;;;;4.27;3.33;;;21.30;55.30;;;;;;5057186;28;20413;-69
2024/03/06 11:33:37;;;;;;;5.37;3.20;;;21.30;55.30;;;;;;5055500;28;20437;-67
2024/03/06 11:36:22;;;;;;;5.07;2.93;;;21.30;55.70;;;;;;5057659;28;20447;-69
2024/03/06 11:38:57;;;;;;;4.63;3.30;;;21.30;55.30;;;;;;5057504;28;20509;-68
2024/03/06 11:41:24;;;;;;;4.70;3.70;;;21.30;55.30;;;;;;5057789;28;20397;-69
2024/03/06 11:43:52;;;;;;;5.03;3.90;;;21.30;55.30;;;;;;5056602;28;20464;-68
2024/03/06 11:46:19;;;;;;;4.30;3.60;;;21.30;55.30;;;;;;5056882;28;20425;-69
2024/03/06 11:48:53;;;;;;;5.80;3.70;;;21.30;55.30;;;;;;5057148;28;20481;-67
2024/03/06 11:51:18;;;;;;;3.93;3.23;;;21.30;55.30;;;;;;5057047;28;20385;-69
2024/03/06 11:53:45;;;;;;;7.00;3.83;;;21.40;55.40;;;;;;5058504;28;20438;-67
2024/03/06 11:56:11;;;;;;;6.80;4.37;;;21.30;55.30;;;;;;5058693;28;20175;-68
2024/03/06 11:58:36;;;;;;;4.63;3.53;;;21.30;55.30;;;;;;5059764;28;20455;-68
2024/03/06 12:01:03;;;;;;;3.90;2.77;;;21.40;55.40;;;;;;5060266;28;20449;-69
2024/03/06 12:03:30;;;;;;;5.43;3.47;;;21.30;55.30;;;;;;5058807;28;20461;-66
2024/03/06 12:05:55;;;;;;;5.80;3.50;;;21.30;55.30;;;;;;5057632;28;20414;-69
2024/03/06 12:08:21;;;;;;;5.83;2.80;;;21.30;55.30;;;;;;5059021;28;20421;-68
2024/03/06 12:10:50;;;;;;;4.40;3.30;;;21.40;55.40;;;;;;5061270;28;20405;-66
2024/03/06 12:13:16;;;;;;;5.83;3.30;;;21.40;55.40;;;;;;5063461;28;20194;-69
2024/03/06 12:15:45;;;;;;;5.53;3.77;;;21.40;55.40;;;;;;5063640;28;20417;-67
2024/03/06 12:18:11;;;;;;;5.20;3.70;;;21.40;55.40;;;;;;5062661;28;21060;-66
2024/03/06 12:20:45;;;;;;;5.00;3.43;;;21.40;55.40;;;;;;5063533;28;20455;-68
2024/03/06 12:23:21;;;;;;;3.80;3.33;;;21.40;55.40;;;;;;5063762;28;20207;-68
2024/03/06 12:25:46;;;;;;;5.20;3.50;;;21.40;55.40;;;;;;5063593;28;20386;-68
2024/03/06 12:28:12;;;;;;;5.40;3.83;;;21.40;55.40;;;;;;5063944;28;20417;-67
2024/03/06 12:30:44;;;;;;;5.30;3.40;;;21.40;55.40;;;;;;5063457;28;20171;-69
2024/03/06 12:33:14;;;;;;;3.27;2.97;;;21.40;55.40;;;;;;5064046;28;20191;-68
2024/03/06 12:35:40;;;;;;;5.00;3.63;;;21.40;55.50;;;;;;5063446;28;20469;-68
2024/03/06 12:38:17;;;;;;;5.17;3.47;;;21.40;55.40;;;;;;5064545;28;20441;-68
2024/03/06 12:40:43;;;;;;;5.30;3.40;;;21.40;55.40;;;;;;5064014;28;20413;-69
2024/03/06 12:43:09;;;;;;;4.10;3.10;;;21.40;55.40;;;;;;5063060;28;20461;-67
2024/03/06 12:45:36;;;;;;;5.57;3.40;;;21.40;55.40;;;;;;5063626;28;20226;-67
2024/03/06 12:48:03;;;;;;;5.17;3.70;;;21.40;55.40;;;;;;5062849;28;20179;-66